sensor_id;sensor_type;location;lat;lon;timestamp;P1;durP1;ratioP1;P2;durP2;ratioP2
58354;SDS011;44160;49.080;19.302;2022-08-03T00:00:06;7.60;;;6.85;;
58354;SDS011;44160;49.080;19.302;2022-08-03T00:02:32;9.25;;;6.43;;
58354;SDS011;44160;49.080;19.302;2022-08-03T00:04:58;8.43;;;7.00;;
58354;SDS011;44160;49.080;19.302;2022-08-03T00:07:24;7.28;;;6.57;;
58354;SDS011;44160;49.080;19.302;2022-08-03T00:09:50;7.00;;;6.38;;
58354;SDS011;44160;49.080;19.302;2022-08-03T00:12:17;10.65;;;7.15;;
58354;SDS011;44160;49.080;19.302;2022-08-03T00:14:43;8.25;;;6.82;;
58354;SDS011;44160;49.080;19.302;2022-08-03T00:17:09;11.75;;;6.72;;
58354;SDS011;44160;49.080;19.302;2022-08-03T00:19:35;7.60;;;6.88;;
58354;SDS011;44160;49.080;19.302;2022-08-03T00:22:01;8.13;;;7.20;;
58354;SDS011;44160;49.080;19.302;2022-08-03T00:24:27;8.10;;;7.38;;
58354;SDS011;44160;49.080;19.302;2022-08-03T00:26:55;7.25;;;6.40;;
58354;SDS011;44160;49.080;19.302;2022-08-03T00:29:21;8.50;;;7.20;;
58354;SDS011;44160;49.080;19.302;2022-08-03T00:31:47;9.43;;;7.28;;
58354;SDS011;44160;49.080;19.302;2022-08-03T00:34:13;9.73;;;7.60;;
58354;SDS011;44160;49.080;19.302;2022-08-03T00:36:39;8.43;;;7.13;;
58354;SDS011;44160;49.080;19.302;2022-08-03T00:39:05;13.13;;;7.70;;
58354;SDS011;44160;49.080;19.302;2022-08-03T00:41:31;7.50;;;6.60;;
58354;SDS011;44160;49.080;19.302;2022-08-03T00:43:57;7.90;;;6.80;;
58354;SDS011;44160;49.080;19.302;2022-08-03T00:46:23;7.65;;;6.78;;
58354;SDS011;44160;49.080;19.302;2022-08-03T00:48:49;8.30;;;7.43;;
58354;SDS011;44160;49.080;19.302;2022-08-03T00:51:15;13.88;;;6.72;;
58354;SDS011;44160;49.080;19.302;2022-08-03T00:53:41;7.18;;;6.50;;
58354;SDS011;44160;49.080;19.302;2022-08-03T00:56:07;9.05;;;7.10;;
58354;SDS011;44160;49.080;19.302;2022-08-03T00:58:33;7.55;;;6.75;;
58354;SDS011;44160;49.080;19.302;2022-08-03T01:00:59;9.00;;;7.03;;
58354;SDS011;44160;49.080;19.302;2022-08-03T01:03:25;10.20;;;8.23;;
58354;SDS011;44160;49.080;19.302;2022-08-03T01:05:55;12.77;;;7.75;;
58354;SDS011;44160;49.080;19.302;2022-08-03T01:13:28;8.35;;;7.43;;
58354;SDS011;44160;49.080;19.302;2022-08-03T01:16:17;8.43;;;7.63;;
58354;SDS011;44160;49.080;19.302;2022-08-03T01:18:51;10.70;;;7.97;;
58354;SDS011;44160;49.080;19.302;2022-08-03T01:21:22;8.90;;;7.97;;
58354;SDS011;44160;49.080;19.302;2022-08-03T01:31:28;9.00;;;8.02;;
58354;SDS011;44160;49.080;19.302;2022-08-03T01:34:01;8.48;;;7.68;;
58354;SDS011;44160;49.080;19.302;2022-08-03T01:36:31;8.40;;;7.50;;
58354;SDS011;44160;49.080;19.302;2022-08-03T01:38:59;7.88;;;7.07;;
58354;SDS011;44160;49.080;19.302;2022-08-03T01:41:32;8.30;;;7.53;;
58354;SDS011;44160;49.080;19.302;2022-08-03T01:44:00;8.80;;;8.00;;
58354;SDS011;44160;49.080;19.302;2022-08-03T01:46:26;8.05;;;7.25;;
58354;SDS011;44160;49.080;19.302;2022-08-03T01:48:54;7.80;;;6.90;;
58354;SDS011;44160;49.080;19.302;2022-08-03T01:51:22;8.38;;;7.43;;
58354;SDS011;44160;49.080;19.302;2022-08-03T01:53:49;9.73;;;8.15;;
58354;SDS011;44160;49.080;19.302;2022-08-03T01:56:18;8.77;;;7.90;;
58354;SDS011;44160;49.080;19.302;2022-08-03T01:58:45;8.27;;;7.35;;
58354;SDS011;44160;49.080;19.302;2022-08-03T02:01:13;7.93;;;7.22;;
58354;SDS011;44160;49.080;19.302;2022-08-03T02:03:40;8.52;;;7.72;;
58354;SDS011;44160;49.080;19.302;2022-08-03T02:06:08;8.88;;;7.85;;
58354;SDS011;44160;49.080;19.302;2022-08-03T02:08:34;9.40;;;8.40;;
58354;SDS011;44160;49.080;19.302;2022-08-03T02:11:01;9.05;;;7.95;;
58354;SDS011;44160;49.080;19.302;2022-08-03T02:13:28;8.48;;;7.68;;
58354;SDS011;44160;49.080;19.302;2022-08-03T02:15:55;11.45;;;8.93;;
58354;SDS011;44160;49.080;19.302;2022-08-03T02:18:22;12.82;;;8.70;;
58354;SDS011;44160;49.080;19.302;2022-08-03T02:20:48;12.30;;;8.55;;
58354;SDS011;44160;49.080;19.302;2022-08-03T02:23:15;10.75;;;8.18;;
58354;SDS011;44160;49.080;19.302;2022-08-03T02:25:43;11.50;;;9.38;;
58354;SDS011;44160;49.080;19.302;2022-08-03T02:28:11;9.50;;;8.57;;
58354;SDS011;44160;49.080;19.302;2022-08-03T02:30:39;9.40;;;8.40;;
58354;SDS011;44160;49.080;19.302;2022-08-03T02:33:09;9.98;;;8.98;;
58354;SDS011;44160;49.080;19.302;2022-08-03T02:35:36;10.00;;;8.00;;
58354;SDS011;44160;49.080;19.302;2022-08-03T02:38:03;10.13;;;8.77;;
58354;SDS011;44160;49.080;19.302;2022-08-03T02:40:30;9.77;;;8.77;;
58354;SDS011;44160;49.080;19.302;2022-08-03T02:42:57;9.88;;;8.93;;
58354;SDS011;44160;49.080;19.302;2022-08-03T02:45:24;9.90;;;8.80;;
58354;SDS011;44160;49.080;19.302;2022-08-03T02:47:51;10.30;;;9.35;;
58354;SDS011;44160;49.080;19.302;2022-08-03T02:50:21;9.50;;;8.52;;
58354;SDS011;44160;49.080;19.302;2022-08-03T02:52:47;10.80;;;8.52;;
58354;SDS011;44160;49.080;19.302;2022-08-03T02:55:14;10.82;;;9.02;;
58354;SDS011;44160;49.080;19.302;2022-08-03T02:57:41;9.45;;;8.45;;
58354;SDS011;44160;49.080;19.302;2022-08-03T03:00:08;10.30;;;9.13;;
58354;SDS011;44160;49.080;19.302;2022-08-03T03:02:34;13.65;;;8.65;;
58354;SDS011;44160;49.080;19.302;2022-08-03T03:05:01;11.85;;;7.93;;
58354;SDS011;44160;49.080;19.302;2022-08-03T03:07:27;8.98;;;8.07;;
58354;SDS011;44160;49.080;19.302;2022-08-03T03:09:53;10.88;;;9.15;;
58354;SDS011;44160;49.080;19.302;2022-08-03T03:12:20;9.35;;;8.35;;
58354;SDS011;44160;49.080;19.302;2022-08-03T03:14:46;10.57;;;8.57;;
58354;SDS011;44160;49.080;19.302;2022-08-03T03:17:12;11.70;;;9.13;;
58354;SDS011;44160;49.080;19.302;2022-08-03T03:19:39;9.75;;;8.80;;
58354;SDS011;44160;49.080;19.302;2022-08-03T03:22:06;9.73;;;8.73;;
58354;SDS011;44160;49.080;19.302;2022-08-03T03:24:33;10.00;;;8.85;;
58354;SDS011;44160;49.080;19.302;2022-08-03T03:26:59;11.98;;;9.13;;
58354;SDS011;44160;49.080;19.302;2022-08-03T03:29:26;9.38;;;8.32;;
58354;SDS011;44160;49.080;19.302;2022-08-03T03:31:52;12.60;;;8.82;;
58354;SDS011;44160;49.080;19.302;2022-08-03T03:34:18;9.32;;;8.40;;
58354;SDS011;44160;49.080;19.302;2022-08-03T03:36:44;10.32;;;8.68;;
58354;SDS011;44160;49.080;19.302;2022-08-03T03:39:11;9.85;;;8.85;;
58354;SDS011;44160;49.080;19.302;2022-08-03T03:41:38;10.77;;;8.45;;
58354;SDS011;44160;49.080;19.302;2022-08-03T03:44:04;8.98;;;8.07;;
58354;SDS011;44160;49.080;19.302;2022-08-03T03:46:30;10.77;;;7.78;;
58354;SDS011;44160;49.080;19.302;2022-08-03T03:48:56;10.57;;;8.05;;
58354;SDS011;44160;49.080;19.302;2022-08-03T03:51:22;9.05;;;7.97;;
58354;SDS011;44160;49.080;19.302;2022-08-03T03:53:58;12.57;;;8.80;;
58354;SDS011;44160;49.080;19.302;2022-08-03T03:56:24;12.35;;;8.68;;
58354;SDS011;44160;49.080;19.302;2022-08-03T03:58:51;13.43;;;8.10;;
58354;SDS011;44160;49.080;19.302;2022-08-03T04:01:17;12.38;;;8.80;;
58354;SDS011;44160;49.080;19.302;2022-08-03T04:03:43;14.68;;;8.32;;
58354;SDS011;44160;49.080;19.302;2022-08-03T04:06:09;11.77;;;8.60;;
58354;SDS011;44160;49.080;19.302;2022-08-03T04:08:54;9.90;;;8.60;;
58354;SDS011;44160;49.080;19.302;2022-08-03T04:11:50;11.27;;;8.38;;
58354;SDS011;44160;49.080;19.302;2022-08-03T04:14:20;9.75;;;8.18;;
58354;SDS011;44160;49.080;19.302;2022-08-03T04:16:52;8.45;;;7.40;;
58354;SDS011;44160;49.080;19.302;2022-08-03T04:21:53;12.40;;;7.60;;
58354;SDS011;44160;49.080;19.302;2022-08-03T04:24:20;7.68;;;6.35;;
58354;SDS011;44160;49.080;19.302;2022-08-03T04:26:47;10.77;;;7.00;;
58354;SDS011;44160;49.080;19.302;2022-08-03T04:29:14;9.57;;;7.10;;
58354;SDS011;44160;49.080;19.302;2022-08-03T04:31:40;12.02;;;7.18;;
58354;SDS011;44160;49.080;19.302;2022-08-03T04:34:07;10.73;;;6.78;;
58354;SDS011;44160;49.080;19.302;2022-08-03T04:36:35;7.95;;;6.60;;
58354;SDS011;44160;49.080;19.302;2022-08-03T04:41:29;7.38;;;6.45;;
58354;SDS011;44160;49.080;19.302;2022-08-03T04:43:56;7.25;;;5.70;;
58354;SDS011;44160;49.080;19.302;2022-08-03T04:46:27;7.80;;;5.60;;
58354;SDS011;44160;49.080;19.302;2022-08-03T04:48:54;9.70;;;5.93;;
58354;SDS011;44160;49.080;19.302;2022-08-03T04:51:20;9.65;;;5.47;;
58354;SDS011;44160;49.080;19.302;2022-08-03T04:53:46;8.57;;;5.78;;
58354;SDS011;44160;49.080;19.302;2022-08-03T04:56:12;8.35;;;5.30;;
58354;SDS011;44160;49.080;19.302;2022-08-03T04:58:38;6.15;;;5.47;;
58354;SDS011;44160;49.080;19.302;2022-08-03T05:01:04;5.95;;;5.25;;
58354;SDS011;44160;49.080;19.302;2022-08-03T05:03:31;7.22;;;4.72;;
58354;SDS011;44160;49.080;19.302;2022-08-03T05:06:00;9.73;;;5.35;;
58354;SDS011;44160;49.080;19.302;2022-08-03T05:08:27;7.18;;;5.60;;
58354;SDS011;44160;49.080;19.302;2022-08-03T05:10:53;6.43;;;4.50;;
58354;SDS011;44160;49.080;19.302;2022-08-03T05:13:19;8.73;;;4.97;;
58354;SDS011;44160;49.080;19.302;2022-08-03T05:15:45;5.15;;;4.63;;
58354;SDS011;44160;49.080;19.302;2022-08-03T05:18:11;6.55;;;5.20;;
58354;SDS011;44160;49.080;19.302;2022-08-03T05:20:37;7.32;;;4.38;;
58354;SDS011;44160;49.080;19.302;2022-08-03T05:23:03;9.38;;;4.88;;
58354;SDS011;44160;49.080;19.302;2022-08-03T05:25:29;5.45;;;4.93;;
58354;SDS011;44160;49.080;19.302;2022-08-03T05:27:55;7.22;;;4.50;;
58354;SDS011;44160;49.080;19.302;2022-08-03T05:30:21;6.40;;;5.10;;
58354;SDS011;44160;49.080;19.302;2022-08-03T05:32:47;7.18;;;4.15;;
58354;SDS011;44160;49.080;19.302;2022-08-03T05:35:13;7.50;;;5.10;;
58354;SDS011;44160;49.080;19.302;2022-08-03T05:37:39;8.10;;;5.32;;
58354;SDS011;44160;49.080;19.302;2022-08-03T05:40:06;4.90;;;4.40;;
58354;SDS011;44160;49.080;19.302;2022-08-03T05:42:32;6.45;;;4.82;;
58354;SDS011;44160;49.080;19.302;2022-08-03T05:44:58;12.20;;;5.13;;
58354;SDS011;44160;49.080;19.302;2022-08-03T05:47:36;7.43;;;4.65;;
58354;SDS011;44160;49.080;19.302;2022-08-03T05:50:02;7.32;;;5.13;;
58354;SDS011;44160;49.080;19.302;2022-08-03T05:52:28;5.05;;;4.55;;
58354;SDS011;44160;49.080;19.302;2022-08-03T05:54:54;5.78;;;5.18;;
58354;SDS011;44160;49.080;19.302;2022-08-03T05:57:20;5.13;;;4.55;;
58354;SDS011;44160;49.080;19.302;2022-08-03T05:59:46;6.10;;;5.10;;
58354;SDS011;44160;49.080;19.302;2022-08-03T06:02:12;9.45;;;5.13;;
58354;SDS011;44160;49.080;19.302;2022-08-03T06:04:38;5.22;;;4.72;;
58354;SDS011;44160;49.080;19.302;2022-08-03T06:07:05;8.57;;;5.30;;
58354;SDS011;44160;49.080;19.302;2022-08-03T06:09:31;7.40;;;5.25;;
58354;SDS011;44160;49.080;19.302;2022-08-03T06:11:57;8.68;;;5.13;;
58354;SDS011;44160;49.080;19.302;2022-08-03T06:14:23;10.25;;;5.47;;
58354;SDS011;44160;49.080;19.302;2022-08-03T06:16:49;7.75;;;4.75;;
58354;SDS011;44160;49.080;19.302;2022-08-03T06:19:15;6.32;;;5.32;;
58354;SDS011;44160;49.080;19.302;2022-08-03T06:21:41;6.72;;;4.60;;
58354;SDS011;44160;49.080;19.302;2022-08-03T06:24:07;9.45;;;5.30;;
58354;SDS011;44160;49.080;19.302;2022-08-03T06:26:33;5.72;;;4.90;;
58354;SDS011;44160;49.080;19.302;2022-08-03T06:28:59;6.50;;;4.72;;
58354;SDS011;44160;49.080;19.302;2022-08-03T06:31:26;8.43;;;5.00;;
58354;SDS011;44160;49.080;19.302;2022-08-03T06:33:54;5.70;;;5.00;;
58354;SDS011;44160;49.080;19.302;2022-08-03T06:36:20;8.85;;;5.22;;
58354;SDS011;44160;49.080;19.302;2022-08-03T06:38:46;5.90;;;5.35;;
58354;SDS011;44160;49.080;19.302;2022-08-03T06:41:12;10.65;;;4.72;;
58354;SDS011;44160;49.080;19.302;2022-08-03T06:43:38;7.65;;;4.70;;
58354;SDS011;44160;49.080;19.302;2022-08-03T06:46:04;6.03;;;4.10;;
58354;SDS011;44160;49.080;19.302;2022-08-03T06:48:30;6.85;;;4.95;;
58354;SDS011;44160;49.080;19.302;2022-08-03T06:50:56;10.20;;;5.60;;
58354;SDS011;44160;49.080;19.302;2022-08-03T06:53:23;7.15;;;5.20;;
58354;SDS011;44160;49.080;19.302;2022-08-03T06:55:50;9.75;;;5.00;;
58354;SDS011;44160;49.080;19.302;2022-08-03T06:58:16;7.43;;;5.80;;
58354;SDS011;44160;49.080;19.302;2022-08-03T07:00:42;9.30;;;5.22;;
58354;SDS011;44160;49.080;19.302;2022-08-03T07:03:12;5.32;;;4.78;;
58354;SDS011;44160;49.080;19.302;2022-08-03T07:05:39;7.30;;;5.45;;
58354;SDS011;44160;49.080;19.302;2022-08-03T07:08:05;6.75;;;5.68;;
58354;SDS011;44160;49.080;19.302;2022-08-03T07:10:31;6.55;;;5.82;;
58354;SDS011;44160;49.080;19.302;2022-08-03T07:12:57;10.10;;;6.30;;
58354;SDS011;44160;49.080;19.302;2022-08-03T07:15:24;12.68;;;5.75;;
58354;SDS011;44160;49.080;19.302;2022-08-03T07:17:50;7.10;;;5.82;;
58354;SDS011;44160;49.080;19.302;2022-08-03T07:20:16;12.43;;;7.10;;
58354;SDS011;44160;49.080;19.302;2022-08-03T07:22:42;9.70;;;5.93;;
58354;SDS011;44160;49.080;19.302;2022-08-03T07:25:09;8.68;;;6.18;;
58354;SDS011;44160;49.080;19.302;2022-08-03T07:27:35;13.77;;;6.45;;
58354;SDS011;44160;49.080;19.302;2022-08-03T07:30:04;10.45;;;5.35;;
58354;SDS011;44160;49.080;19.302;2022-08-03T07:32:30;12.82;;;6.13;;
58354;SDS011;44160;49.080;19.302;2022-08-03T07:34:57;7.68;;;5.50;;
58354;SDS011;44160;49.080;19.302;2022-08-03T07:37:23;9.48;;;5.35;;
58354;SDS011;44160;49.080;19.302;2022-08-03T07:39:49;9.82;;;5.40;;
58354;SDS011;44160;49.080;19.302;2022-08-03T07:42:15;8.60;;;5.20;;
58354;SDS011;44160;49.080;19.302;2022-08-03T07:44:41;8.77;;;5.35;;
58354;SDS011;44160;49.080;19.302;2022-08-03T07:47:07;8.05;;;5.72;;
58354;SDS011;44160;49.080;19.302;2022-08-03T07:49:40;5.38;;;4.88;;
58354;SDS011;44160;49.080;19.302;2022-08-03T07:52:06;7.97;;;4.72;;
58354;SDS011;44160;49.080;19.302;2022-08-03T07:54:50;5.32;;;4.82;;
58354;SDS011;44160;49.080;19.302;2022-08-03T07:57:17;5.20;;;4.65;;
58354;SDS011;44160;49.080;19.302;2022-08-03T07:59:44;5.32;;;4.55;;
58354;SDS011;44160;49.080;19.302;2022-08-03T08:02:10;5.63;;;5.13;;
58354;SDS011;44160;49.080;19.302;2022-08-03T08:04:36;7.05;;;4.88;;
58354;SDS011;44160;49.080;19.302;2022-08-03T08:07:02;5.00;;;4.50;;
58354;SDS011;44160;49.080;19.302;2022-08-03T08:09:28;6.18;;;4.45;;
58354;SDS011;44160;49.080;19.302;2022-08-03T08:11:54;5.47;;;4.88;;
58354;SDS011;44160;49.080;19.302;2022-08-03T08:14:20;4.75;;;4.28;;
58354;SDS011;44160;49.080;19.302;2022-08-03T08:16:46;7.90;;;4.90;;
58354;SDS011;44160;49.080;19.302;2022-08-03T08:19:13;5.75;;;4.25;;
58354;SDS011;44160;49.080;19.302;2022-08-03T08:21:41;5.70;;;4.65;;
58354;SDS011;44160;49.080;19.302;2022-08-03T08:24:07;8.07;;;4.63;;
58354;SDS011;44160;49.080;19.302;2022-08-03T08:26:33;5.93;;;5.10;;
58354;SDS011;44160;49.080;19.302;2022-08-03T08:28:59;8.30;;;4.70;;
58354;SDS011;44160;49.080;19.302;2022-08-03T08:31:25;8.88;;;4.80;;
58354;SDS011;44160;49.080;19.302;2022-08-03T08:33:51;4.53;;;3.83;;
58354;SDS011;44160;49.080;19.302;2022-08-03T08:36:17;4.78;;;4.05;;
58354;SDS011;44160;49.080;19.302;2022-08-03T08:38:43;4.65;;;4.25;;
58354;SDS011;44160;49.080;19.302;2022-08-03T08:41:10;4.60;;;3.97;;
58354;SDS011;44160;49.080;19.302;2022-08-03T08:43:36;4.20;;;3.80;;
58354;SDS011;44160;49.080;19.302;2022-08-03T08:46:02;5.15;;;4.65;;
58354;SDS011;44160;49.080;19.302;2022-08-03T08:48:29;4.60;;;4.00;;
58354;SDS011;44160;49.080;19.302;2022-08-03T08:50:56;4.88;;;4.40;;
58354;SDS011;44160;49.080;19.302;2022-08-03T08:53:25;5.10;;;2.78;;
58354;SDS011;44160;49.080;19.302;2022-08-03T08:55:54;5.05;;;3.40;;
58354;SDS011;44160;49.080;19.302;2022-08-03T08:58:22;4.00;;;3.60;;
58354;SDS011;44160;49.080;19.302;2022-08-03T09:00:48;4.40;;;3.72;;
58354;SDS011;44160;49.080;19.302;2022-08-03T09:03:15;6.32;;;3.92;;
58354;SDS011;44160;49.080;19.302;2022-08-03T09:05:42;3.80;;;3.22;;
58354;SDS011;44160;49.080;19.302;2022-08-03T09:08:08;3.58;;;3.25;;
58354;SDS011;44160;49.080;19.302;2022-08-03T09:10:34;5.85;;;3.40;;
58354;SDS011;44160;49.080;19.302;2022-08-03T09:13:01;4.35;;;3.08;;
58354;SDS011;44160;49.080;19.302;2022-08-03T09:15:28;3.20;;;2.90;;
58354;SDS011;44160;49.080;19.302;2022-08-03T09:17:58;3.50;;;2.80;;
58354;SDS011;44160;49.080;19.302;2022-08-03T09:20:25;6.15;;;2.80;;
58354;SDS011;44160;49.080;19.302;2022-08-03T09:25:28;3.45;;;2.50;;
58354;SDS011;44160;49.080;19.302;2022-08-03T09:27:54;5.53;;;2.47;;
58354;SDS011;44160;49.080;19.302;2022-08-03T09:30:28;3.25;;;2.85;;
58354;SDS011;44160;49.080;19.302;2022-08-03T09:32:58;3.10;;;2.80;;
58354;SDS011;44160;49.080;19.302;2022-08-03T09:35:25;3.38;;;2.50;;
58354;SDS011;44160;49.080;19.302;2022-08-03T09:38:11;4.00;;;2.40;;
58354;SDS011;44160;49.080;19.302;2022-08-03T09:40:38;3.17;;;2.20;;
58354;SDS011;44160;49.080;19.302;2022-08-03T09:43:04;2.28;;;2.08;;
58354;SDS011;44160;49.080;19.302;2022-08-03T09:45:32;5.85;;;2.90;;
58354;SDS011;44160;49.080;19.302;2022-08-03T09:48:00;5.30;;;2.90;;
58354;SDS011;44160;49.080;19.302;2022-08-03T09:50:47;5.22;;;2.63;;
58354;SDS011;44160;49.080;19.302;2022-08-03T09:55:49;7.63;;;2.58;;
58354;SDS011;44160;49.080;19.302;2022-08-03T09:58:15;4.03;;;2.33;;
58354;SDS011;44160;49.080;19.302;2022-08-03T10:00:55;2.90;;;2.00;;
58354;SDS011;44160;49.080;19.302;2022-08-03T10:03:22;3.70;;;2.38;;
58354;SDS011;44160;49.080;19.302;2022-08-03T10:05:48;2.83;;;2.53;;
58354;SDS011;44160;49.080;19.302;2022-08-03T10:08:15;6.05;;;3.13;;
58354;SDS011;44160;49.080;19.302;2022-08-03T10:10:42;4.05;;;2.40;;
58354;SDS011;44160;49.080;19.302;2022-08-03T10:13:09;2.88;;;2.35;;
58354;SDS011;44160;49.080;19.302;2022-08-03T10:15:37;1.90;;;1.70;;
58354;SDS011;44160;49.080;19.302;2022-08-03T10:18:04;5.57;;;2.20;;
58354;SDS011;44160;49.080;19.302;2022-08-03T10:20:30;2.63;;;1.90;;
58354;SDS011;44160;49.080;19.302;2022-08-03T10:22:57;2.50;;;2.30;;
58354;SDS011;44160;49.080;19.302;2022-08-03T10:25:24;3.80;;;2.33;;
58354;SDS011;44160;49.080;19.302;2022-08-03T10:27:50;2.65;;;2.20;;
58354;SDS011;44160;49.080;19.302;2022-08-03T10:30:17;4.43;;;2.42;;
58354;SDS011;44160;49.080;19.302;2022-08-03T10:32:51;3.08;;;2.28;;
58354;SDS011;44160;49.080;19.302;2022-08-03T10:35:21;3.70;;;1.88;;
58354;SDS011;44160;49.080;19.302;2022-08-03T10:37:51;2.47;;;2.10;;
58354;SDS011;44160;49.080;19.302;2022-08-03T10:40:20;2.70;;;2.10;;
58354;SDS011;44160;49.080;19.302;2022-08-03T10:42:47;2.55;;;2.10;;
58354;SDS011;44160;49.080;19.302;2022-08-03T10:45:17;3.45;;;2.50;;
58354;SDS011;44160;49.080;19.302;2022-08-03T10:47:44;4.13;;;2.38;;
58354;SDS011;44160;49.080;19.302;2022-08-03T10:50:10;6.32;;;2.83;;
58354;SDS011;44160;49.080;19.302;2022-08-03T10:52:56;3.67;;;2.53;;
58354;SDS011;44160;49.080;19.302;2022-08-03T10:55:36;2.85;;;2.03;;
58354;SDS011;44160;49.080;19.302;2022-08-03T11:01:11;2.22;;;2.00;;
58354;SDS011;44160;49.080;19.302;2022-08-03T11:06:33;2.58;;;1.95;;
58354;SDS011;44160;49.080;19.302;2022-08-03T11:11:34;2.33;;;2.13;;
58354;SDS011;44160;49.080;19.302;2022-08-03T11:14:03;2.50;;;2.10;;
58354;SDS011;44160;49.080;19.302;2022-08-03T11:16:32;2.40;;;2.20;;
58354;SDS011;44160;49.080;19.302;2022-08-03T11:19:00;2.85;;;2.10;;
58354;SDS011;44160;49.080;19.302;2022-08-03T11:24:40;4.22;;;2.40;;
58354;SDS011;44160;49.080;19.302;2022-08-03T11:38:09;4.68;;;2.65;;
58354;SDS011;44160;49.080;19.302;2022-08-03T11:46:04;4.32;;;2.10;;
58354;SDS011;44160;49.080;19.302;2022-08-03T11:50:59;2.22;;;2.03;;
58354;SDS011;44160;49.080;19.302;2022-08-03T11:53:25;3.65;;;1.80;;
58354;SDS011;44160;49.080;19.302;2022-08-03T11:55:52;1.77;;;1.67;;
58354;SDS011;44160;49.080;19.302;2022-08-03T11:58:19;3.78;;;2.05;;
58354;SDS011;44160;49.080;19.302;2022-08-03T12:00:45;3.40;;;2.03;;
58354;SDS011;44160;49.080;19.302;2022-08-03T12:03:12;3.60;;;2.00;;
58354;SDS011;44160;49.080;19.302;2022-08-03T12:05:39;2.65;;;1.90;;
58354;SDS011;44160;49.080;19.302;2022-08-03T12:08:07;2.75;;;2.08;;
58354;SDS011;44160;49.080;19.302;2022-08-03T12:10:34;3.17;;;1.88;;
58354;SDS011;44160;49.080;19.302;2022-08-03T12:13:01;2.70;;;2.05;;
58354;SDS011;44160;49.080;19.302;2022-08-03T12:15:30;2.42;;;2.20;;
58354;SDS011;44160;49.080;19.302;2022-08-03T12:17:59;2.57;;;2.03;;
58354;SDS011;44160;49.080;19.302;2022-08-03T12:20:26;2.10;;;1.77;;
58354;SDS011;44160;49.080;19.302;2022-08-03T12:22:53;2.38;;;2.03;;
58354;SDS011;44160;49.080;19.302;2022-08-03T12:25:23;3.08;;;2.25;;
58354;SDS011;44160;49.080;19.302;2022-08-03T12:27:51;2.92;;;1.80;;
58354;SDS011;44160;49.080;19.302;2022-08-03T12:30:17;4.60;;;2.25;;
58354;SDS011;44160;49.080;19.302;2022-08-03T12:32:44;2.85;;;2.40;;
58354;SDS011;44160;49.080;19.302;2022-08-03T12:35:20;2.15;;;1.90;;
58354;SDS011;44160;49.080;19.302;2022-08-03T12:37:47;2.83;;;2.05;;
58354;SDS011;44160;49.080;19.302;2022-08-03T12:40:13;4.50;;;2.25;;
58354;SDS011;44160;49.080;19.302;2022-08-03T12:42:40;3.42;;;2.08;;
58354;SDS011;44160;49.080;19.302;2022-08-03T12:45:19;2.38;;;2.13;;
58354;SDS011;44160;49.080;19.302;2022-08-03T12:50:33;2.10;;;1.80;;
58354;SDS011;44160;49.080;19.302;2022-08-03T12:53:00;2.53;;;2.25;;
58354;SDS011;44160;49.080;19.302;2022-08-03T12:55:28;3.00;;;2.05;;
58354;SDS011;44160;49.080;19.302;2022-08-03T12:58:04;3.38;;;2.10;;
58354;SDS011;44160;49.080;19.302;2022-08-03T13:02:59;1.75;;;1.65;;
58354;SDS011;44160;49.080;19.302;2022-08-03T13:05:26;4.70;;;2.22;;
58354;SDS011;44160;49.080;19.302;2022-08-03T13:07:52;2.17;;;1.98;;
58354;SDS011;44160;49.080;19.302;2022-08-03T13:10:29;3.13;;;1.90;;
58354;SDS011;44160;49.080;19.302;2022-08-03T13:12:55;3.20;;;2.00;;
58354;SDS011;44160;49.080;19.302;2022-08-03T13:15:27;3.63;;;1.80;;
58354;SDS011;44160;49.080;19.302;2022-08-03T13:17:55;1.88;;;1.70;;
58354;SDS011;44160;49.080;19.302;2022-08-03T13:20:21;2.40;;;2.15;;
58354;SDS011;44160;49.080;19.302;2022-08-03T13:22:48;4.05;;;1.98;;
58354;SDS011;44160;49.080;19.302;2022-08-03T13:25:14;2.25;;;1.70;;
58354;SDS011;44160;49.080;19.302;2022-08-03T13:27:40;3.70;;;1.80;;
58354;SDS011;44160;49.080;19.302;2022-08-03T13:30:07;2.33;;;1.83;;
58354;SDS011;44160;49.080;19.302;2022-08-03T13:32:33;2.22;;;1.85;;
58354;SDS011;44160;49.080;19.302;2022-08-03T13:34:59;2.05;;;1.73;;
58354;SDS011;44160;49.080;19.302;2022-08-03T13:37:26;4.20;;;2.13;;
58354;SDS011;44160;49.080;19.302;2022-08-03T13:39:53;2.10;;;1.83;;
58354;SDS011;44160;49.080;19.302;2022-08-03T13:42:25;1.70;;;1.60;;
58354;SDS011;44160;49.080;19.302;2022-08-03T13:44:51;2.20;;;1.83;;
58354;SDS011;44160;49.080;19.302;2022-08-03T13:47:17;6.15;;;2.22;;
58354;SDS011;44160;49.080;19.302;2022-08-03T13:49:43;2.80;;;2.13;;
58354;SDS011;44160;49.080;19.302;2022-08-03T13:52:09;2.50;;;2.00;;
58354;SDS011;44160;49.080;19.302;2022-08-03T13:54:36;2.13;;;1.80;;
58354;SDS011;44160;49.080;19.302;2022-08-03T13:57:02;2.35;;;1.88;;
58354;SDS011;44160;49.080;19.302;2022-08-03T13:59:28;2.72;;;2.00;;
58354;SDS011;44160;49.080;19.302;2022-08-03T14:01:54;4.05;;;2.03;;
58354;SDS011;44160;49.080;19.302;2022-08-03T14:04:20;3.67;;;2.20;;
58354;SDS011;44160;49.080;19.302;2022-08-03T14:06:46;3.25;;;2.20;;
58354;SDS011;44160;49.080;19.302;2022-08-03T14:09:13;2.50;;;2.10;;
58354;SDS011;44160;49.080;19.302;2022-08-03T14:11:40;4.53;;;2.15;;
58354;SDS011;44160;49.080;19.302;2022-08-03T14:14:06;2.92;;;2.20;;
58354;SDS011;44160;49.080;19.302;2022-08-03T14:16:32;3.78;;;2.33;;
58354;SDS011;44160;49.080;19.302;2022-08-03T14:18:58;3.55;;;2.40;;
58354;SDS011;44160;49.080;19.302;2022-08-03T14:21:24;3.95;;;2.50;;
58354;SDS011;44160;49.080;19.302;2022-08-03T14:23:50;4.10;;;1.80;;
58354;SDS011;44160;49.080;19.302;2022-08-03T14:26:16;2.28;;;2.00;;
58354;SDS011;44160;49.080;19.302;2022-08-03T14:28:44;3.55;;;2.13;;
58354;SDS011;44160;49.080;19.302;2022-08-03T14:31:10;2.88;;;1.98;;
58354;SDS011;44160;49.080;19.302;2022-08-03T14:33:37;3.17;;;2.28;;
58354;SDS011;44160;49.080;19.302;2022-08-03T14:36:03;4.93;;;1.83;;
58354;SDS011;44160;49.080;19.302;2022-08-03T14:38:32;2.05;;;1.70;;
58354;SDS011;44160;49.080;19.302;2022-08-03T14:40:58;1.65;;;1.55;;
58354;SDS011;44160;49.080;19.302;2022-08-03T14:43:24;2.00;;;1.80;;
58354;SDS011;44160;49.080;19.302;2022-08-03T14:45:50;2.78;;;1.67;;
58354;SDS011;44160;49.080;19.302;2022-08-03T14:48:18;4.53;;;1.80;;
58354;SDS011;44160;49.080;19.302;2022-08-03T14:50:44;2.50;;;1.63;;
58354;SDS011;44160;49.080;19.302;2022-08-03T14:53:10;2.30;;;2.10;;
58354;SDS011;44160;49.080;19.302;2022-08-03T14:55:36;2.00;;;1.73;;
58354;SDS011;44160;49.080;19.302;2022-08-03T14:58:02;2.70;;;1.85;;
58354;SDS011;44160;49.080;19.302;2022-08-03T15:00:31;2.47;;;2.20;;
58354;SDS011;44160;49.080;19.302;2022-08-03T15:02:57;2.58;;;1.77;;
58354;SDS011;44160;49.080;19.302;2022-08-03T15:05:23;2.65;;;1.92;;
58354;SDS011;44160;49.080;19.302;2022-08-03T15:07:49;5.82;;;1.70;;
58354;SDS011;44160;49.080;19.302;2022-08-03T15:10:15;6.13;;;1.77;;
58354;SDS011;44160;49.080;19.302;2022-08-03T15:12:41;2.67;;;1.70;;
58354;SDS011;44160;49.080;19.302;2022-08-03T15:15:07;2.38;;;2.17;;
58354;SDS011;44160;49.080;19.302;2022-08-03T15:17:33;3.05;;;1.70;;
58354;SDS011;44160;49.080;19.302;2022-08-03T15:19:59;2.95;;;1.80;;
58354;SDS011;44160;49.080;19.302;2022-08-03T15:22:25;2.17;;;1.83;;
58354;SDS011;44160;49.080;19.302;2022-08-03T15:24:51;3.80;;;1.42;;
58354;SDS011;44160;49.080;19.302;2022-08-03T15:27:19;2.33;;;1.60;;
58354;SDS011;44160;49.080;19.302;2022-08-03T15:29:45;2.58;;;1.92;;
58354;SDS011;44160;49.080;19.302;2022-08-03T15:32:11;2.20;;;1.83;;